Time;durP1;ratioP1;P1;durP2;ratioP2;P2;SDS_P1;SDS_P2;PMS_P1;PMS_P2;Temp;Humidity;BMP_temperature;BMP_pressure;BME280_temperature;BME280_humidity;BME280_pressure;Samples;Min_cycle;Max_cycle;Signal;HPM_P1;HPM_P2
2020/03/27 00:01:00;;;;;;;17.95;8.200001;;;;;;;1.22;57.23242;94804.52;;;;
2020/03/27 00:03:03;;;;;;;14.55;9.35;;;;;;;1.14;57.46289;94811.28;;;;
2020/03/27 00:04:28;;;;;;;14.55;9.35;;;;;;;1.14;57.46289;94811.28;;;;
2020/03/27 00:05:36;;;;;;;14.55;9.35;;;;;;;1.14;57.46289;94811.28;;;;
2020/03/27 00:07:14;;;;;;;14.55;9.35;;;;;;;1.14;57.46289;94811.28;;;;
2020/03/27 00:09:03;;;;;;;14.55;9.35;;;;;;;1.14;57.46289;94811.28;;;;
2020/03/27 00:11:03;;;;;;;14.55;9.35;;;;;;;1.14;57.46289;94811.28;;;;
2020/03/27 00:12:31;;;;;;;14.55;9.35;;;;;;;1.14;57.46289;94811.28;;;;
2020/03/27 00:13:35;;;;;;;18.7;8.899999;;;;;;;1.11;57.50293;94799.7;;;;
2020/03/27 00:14:43;;;;;;;18.7;8.899999;;;;;;;1.11;57.50293;94799.7;;;;
2020/03/27 00:15:57;;;;;;;18.7;8.899999;;;;;;;1.11;57.50293;94799.7;;;;
2020/03/27 00:17:22;;;;;;;18.7;8.899999;;;;;;;1.11;57.50293;94799.7;;;;
2020/03/27 00:18:33;;;;;;;18.7;8.899999;;;;;;;1.11;57.50293;94799.7;;;;
2020/03/27 00:19:57;;;;;;;18.7;8.899999;;;;;;;1.11;57.50293;94799.7;;;;
2020/03/27 00:21:33;;;;;;;18.7;8.899999;;;;;;;1.11;57.50293;94799.7;;;;
2020/03/27 00:22:40;;;;;;;18.7;8.899999;;;;;;;1.11;57.50293;94799.7;;;;
2020/03/27 00:23:49;;;;;;;16.9;9.1;;;;;;;0.96;57.58789;94799.77;;;;
2020/03/27 00:24:51;;;;;;;16.9;9.1;;;;;;;0.96;57.58789;94799.77;;;;
2020/03/27 00:26:05;;;;;;;16.9;9.1;;;;;;;0.96;57.58789;94799.77;;;;
2020/03/27 00:27:17;;;;;;;16.9;9.1;;;;;;;0.96;57.58789;94799.77;;;;
2020/03/27 00:28:33;;;;;;;16.9;9.1;;;;;;;0.96;57.58789;94799.77;;;;
2020/03/27 00:29:42;;;;;;;16.9;9.1;;;;;;;0.96;57.58789;94799.77;;;;
2020/03/27 00:30:42;;;;;;;16.9;9.1;;;;;;;0.96;57.58789;94799.77;;;;
2020/03/27 00:32:10;;;;;;;16.9;9.1;;;;;;;0.96;57.58789;94799.77;;;;
2020/03/27 00:33:14;;;;;;;16.9;9.1;;;;;;;0.96;57.58789;94799.77;;;;
2020/03/27 00:34:15;;;;;;;16.9;9.1;;;;;;;0.96;57.58789;94799.77;;;;
2020/03/27 00:35:28;;;;;;;16.9;8.4;;;;;;;0.9;57.61133;94790.3;;;;
2020/03/27 00:36:29;;;;;;;16.9;8.4;;;;;;;0.9;57.61133;94790.3;;;;
2020/03/27 00:37:43;;;;;;;16.9;8.4;;;;;;;0.9;57.61133;94790.3;;;;
2020/03/27 00:38:51;;;;;;;16.9;8.4;;;;;;;0.9;57.61133;94790.3;;;;
2020/03/27 00:39:52;;;;;;;16.9;8.4;;;;;;;0.9;57.61133;94790.3;;;;
2020/03/27 00:41:22;;;;;;;16.9;8.4;;;;;;;0.9;57.61133;94790.3;;;;
2020/03/27 00:42:23;;;;;;;16.9;8.4;;;;;;;0.9;57.61133;94790.3;;;;
2020/03/27 00:43:27;;;;;;;16.9;8.4;;;;;;;0.9;57.61133;94790.3;;;;
2020/03/27 00:44:27;;;;;;;16.9;8.4;;;;;;;0.9;57.61133;94790.3;;;;
2020/03/27 00:45:28;;;;;;;14.05;8.799998;;;;;;;0.71;57.7207;94786.94;;;;
2020/03/27 00:46:31;;;;;;;14.05;8.799998;;;;;;;0.71;57.7207;94786.94;;;;
2020/03/27 00:47:36;;;;;;;14.05;8.799998;;;;;;;0.71;57.7207;94786.94;;;;
2020/03/27 00:52:38;;;;;;;14.05;8.799998;;;;;;;0.71;57.7207;94786.94;;;;
2020/03/27 00:53:39;;;;;;;14.05;8.799998;;;;;;;0.71;57.7207;94786.94;;;;
2020/03/27 00:54:43;;;;;;;14.05;8.799998;;;;;;;0.71;57.7207;94786.94;;;;
2020/03/27 00:55:52;;;;;;;14.6;8.65;;;;;;;0.55;57.85645;94775.22;;;;
2020/03/27 00:56:52;;;;;;;14.6;8.65;;;;;;;0.55;57.85645;94775.22;;;;
2020/03/27 00:57:53;;;;;;;14.6;8.65;;;;;;;0.55;57.85645;94775.22;;;;
2020/03/27 00:59:01;;;;;;;14.6;8.65;;;;;;;0.55;57.85645;94775.22;;;;
2020/03/27 01:00:03;;;;;;;14.6;8.65;;;;;;;0.55;57.85645;94775.22;;;;
2020/03/27 01:01:19;;;;;;;14.6;8.65;;;;;;;0.55;57.85645;94775.22;;;;
2020/03/27 01:02:46;;;;;;;14.6;8.65;;;;;;;0.55;57.85645;94775.22;;;;
2020/03/27 01:05:14;;;;;;;14.6;8.65;;;;;;;0.55;57.85645;94775.22;;;;
2020/03/27 01:07:04;;;;;;;16.2;8.349998;;;;;;;0.39;58.19238;94768.39;;;;
2020/03/27 01:08:11;;;;;;;16.2;8.349998;;;;;;;0.39;58.19238;94768.39;;;;
2020/03/27 01:09:20;;;;;;;16.2;8.349998;;;;;;;0.39;58.19238;94768.39;;;;
2020/03/27 01:14:40;;;;;;;16.2;8.349998;;;;;;;0.39;58.19238;94768.39;;;;
2020/03/27 01:15:56;;;;;;;16.2;8.349998;;;;;;;0.39;58.19238;94768.39;;;;
2020/03/27 01:17:05;;;;;;;15.8;8.299999;;;;;;;0.36;58.36719;94765.17;;;;
2020/03/27 01:18:10;;;;;;;15.8;8.299999;;;;;;;0.36;58.36719;94765.17;;;;
2020/03/27 01:19:23;;;;;;;15.8;8.299999;;;;;;;0.36;58.36719;94765.17;;;;
2020/03/27 01:21:49;;;;;;;15.8;8.299999;;;;;;;0.36;58.36719;94765.17;;;;
2020/03/27 01:22:52;;;;;;;15.8;8.299999;;;;;;;0.36;58.36719;94765.17;;;;
2020/03/27 01:24:10;;;;;;;15.8;8.299999;;;;;;;0.36;58.36719;94765.17;;;;
2020/03/27 01:25:16;;;;;;;15.8;8.299999;;;;;;;0.36;58.36719;94765.17;;;;
2020/03/27 01:26:32;;;;;;;15.8;8.299999;;;;;;;0.36;58.36719;94765.17;;;;
2020/03/27 01:27:36;;;;;;;13.2;8.35;;;;;;;0.28;58.45117;94767.05;;;;
2020/03/27 01:29:00;;;;;;;13.2;8.35;;;;;;;0.28;58.45117;94767.05;;;;
2020/03/27 01:30:09;;;;;;;13.2;8.35;;;;;;;0.28;58.45117;94767.05;;;;
2020/03/27 01:31:24;;;;;;;13.2;8.35;;;;;;;0.28;58.45117;94767.05;;;;
2020/03/27 01:32:57;;;;;;;13.2;8.35;;;;;;;0.28;58.45117;94767.05;;;;
2020/03/27 01:34:28;;;;;;;13.2;8.35;;;;;;;0.28;58.45117;94767.05;;;;
2020/03/27 01:36:57;;;;;;;13.2;8.35;;;;;;;0.28;58.45117;94767.05;;;;
2020/03/27 01:38:15;;;;;;;14.45;8.75;;;;;;;0.27;58.5752;94765.38;;;;
2020/03/27 01:39:27;;;;;;;14.45;8.75;;;;;;;0.27;58.5752;94765.38;;;;
2020/03/27 01:41:02;;;;;;;14.45;8.75;;;;;;;0.27;58.5752;94765.38;;;;
2020/03/27 01:45:32;;;;;;;14.45;8.75;;;;;;;0.27;58.5752;94765.38;;;;
2020/03/27 01:46:41;;;;;;;14.45;8.75;;;;;;;0.27;58.5752;94765.38;;;;
2020/03/27 01:47:49;;;;;;;14.45;8.75;;;;;;;0.27;58.5752;94765.38;;;;
2020/03/27 01:48:56;;;;;;;12.3;8.299999;;;;;;;0.21;58.69238;94767.07;;;;
2020/03/27 01:50:17;;;;;;;12.3;8.299999;;;;;;;0.21;58.69238;94767.07;;;;
2020/03/27 01:51:30;;;;;;;12.3;8.299999;;;;;;;0.21;58.69238;94767.07;;;;
2020/03/27 01:52:37;;;;;;;12.3;8.299999;;;;;;;0.21;58.69238;94767.07;;;;
2020/03/27 01:53:52;;;;;;;12.3;8.299999;;;;;;;0.21;58.69238;94767.07;;;;
2020/03/27 01:55:02;;;;;;;12.3;8.299999;;;;;;;0.21;58.69238;94767.07;;;;
2020/03/27 01:56:30;;;;;;;12.3;8.299999;;;;;;;0.21;58.69238;94767.07;;;;
2020/03/27 01:57:35;;;;;;;12.3;8.299999;;;;;;;0.21;58.69238;94767.07;;;;
2020/03/27 01:58:35;;;;;;;12.3;8.299999;;;;;;;0.21;58.69238;94767.07;;;;
2020/03/27 01:59:40;;;;;;;13.15;8.25;;;;;;;0.16;58.88379;94765.97;;;;
2020/03/27 02:00:50;;;;;;;13.15;8.25;;;;;;;0.16;58.88379;94765.97;;;;
2020/03/27 02:07:29;;;;;;;13.15;8.25;;;;;;;0.16;58.88379;94765.97;;;;
2020/03/27 02:08:45;;;;;;;13.15;8.25;;;;;;;0.16;58.88379;94765.97;;;;
2020/03/27 02:10:19;;;;;;;14.3;8.299999;;;;;;;0.01;59.00098;94764.23;;;;
2020/03/27 02:11:59;;;;;;;14.3;8.299999;;;;;;;0.01;59.00098;94764.23;;;;
2020/03/27 02:13:09;;;;;;;14.3;8.299999;;;;;;;0.01;59.00098;94764.23;;;;
2020/03/27 02:15:58;;;;;;;14.3;8.299999;;;;;;;0.01;59.00098;94764.23;;;;
2020/03/27 02:17:34;;;;;;;14.3;8.299999;;;;;;;0.01;59.00098;94764.23;;;;
2020/03/27 02:18:45;;;;;;;14.3;8.299999;;;;;;;0.01;59.00098;94764.23;;;;
2020/03/27 02:19:56;;;;;;;14.3;8.299999;;;;;;;0.01;59.00098;94764.23;;;;
2020/03/27 02:24:12;;;;;;;14.7;8.050001;;;;;;;-0.06;59.1582;94760.67;;;;
2020/03/27 02:25:41;;;;;;;14.7;8.050001;;;;;;;-0.06;59.1582;94760.67;;;;
2020/03/27 02:26:49;;;;;;;14.7;8.050001;;;;;;;-0.06;59.1582;94760.67;;;;
2020/03/27 02:28:01;;;;;;;14.7;8.050001;;;;;;;-0.06;59.1582;94760.67;;;;
2020/03/27 02:29:14;;;;;;;14.7;8.050001;;;;;;;-0.06;59.1582;94760.67;;;;
2020/03/27 02:30:36;;;;;;;14.7;8.050001;;;;;;;-0.06;59.1582;94760.67;;;;
2020/03/27 02:31:46;;;;;;;12.1;8.099999;;;;;;;-0.24;59.34375;94769.02;;;;
2020/03/27 02:32:54;;;;;;;12.1;8.099999;;;;;;;-0.24;59.34375;94769.02;;;;
2020/03/27 02:34:04;;;;;;;12.1;8.099999;;;;;;;-0.24;59.34375;94769.02;;;;
2020/03/27 02:35:16;;;;;;;12.1;8.099999;;;;;;;-0.24;59.34375;94769.02;;;;
2020/03/27 02:36:30;;;;;;;12.1;8.099999;;;;;;;-0.24;59.34375;94769.02;;;;
2020/03/27 02:39:18;;;;;;;12.1;8.099999;;;;;;;-0.24;59.34375;94769.02;;;;
2020/03/27 02:41:53;;;;;;;13.95;7.299999;;;;;;;-0.36;59.49414;94765.56;;;;
2020/03/27 02:42:59;;;;;;;13.95;7.299999;;;;;;;-0.36;59.49414;94765.56;;;;
2020/03/27 02:44:33;;;;;;;13.95;7.299999;;;;;;;-0.36;59.49414;94765.56;;;;
2020/03/27 02:45:51;;;;;;;13.95;7.299999;;;;;;;-0.36;59.49414;94765.56;;;;
2020/03/27 02:52:11;;;;;;;15.15;7.550002;;;;;;;-0.53;59.56543;94757.97;;;;
2020/03/27 02:53:12;;;;;;;15.15;7.550002;;;;;;;-0.53;59.56543;94757.97;;;;
2020/03/27 02:54:22;;;;;;;15.15;7.550002;;;;;;;-0.53;59.56543;94757.97;;;;
2020/03/27 02:55:28;;;;;;;15.15;7.550002;;;;;;;-0.53;59.56543;94757.97;;;;
2020/03/27 02:56:29;;;;;;;15.15;7.550002;;;;;;;-0.53;59.56543;94757.97;;;;
2020/03/27 02:57:31;;;;;;;15.15;7.550002;;;;;;;-0.53;59.56543;94757.97;;;;
2020/03/27 02:58:31;;;;;;;15.15;7.550002;;;;;;;-0.53;59.56543;94757.97;;;;
2020/03/27 02:59:32;;;;;;;15.15;7.550002;;;;;;;-0.53;59.56543;94757.97;;;;
2020/03/27 03:00:43;;;;;;;15.15;7.550002;;;;;;;-0.53;59.56543;94757.97;;;;
2020/03/27 03:01:59;;;;;;;15.15;7.550002;;;;;;;-0.53;59.56543;94757.97;;;;
2020/03/27 03:03:03;;;;;;;11.9;7.650001;;;;;;;-0.59;59.58691;94753.8;;;;
2020/03/27 03:04:19;;;;;;;11.9;7.650001;;;;;;;-0.59;59.58691;94753.8;;;;
2020/03/27 03:05:39;;;;;;;11.9;7.650001;;;;;;;-0.59;59.58691;94753.8;;;;
2020/03/27 03:06:55;;;;;;;11.9;7.650001;;;;;;;-0.59;59.58691;94753.8;;;;
2020/03/27 03:08:23;;;;;;;11.9;7.650001;;;;;;;-0.59;59.58691;94753.8;;;;
2020/03/27 03:09:58;;;;;;;11.9;7.650001;;;;;;;-0.59;59.58691;94753.8;;;;
2020/03/27 03:15:32;;;;;;;15.05;7.699999;;;;;;;-0.66;59.67188;94747.99;;;;
2020/03/27 03:16:44;;;;;;;15.05;7.699999;;;;;;;-0.66;59.67188;94747.99;;;;
2020/03/27 03:17:53;;;;;;;15.05;7.699999;;;;;;;-0.66;59.67188;94747.99;;;;
2020/03/27 03:19:08;;;;;;;15.05;7.699999;;;;;;;-0.66;59.67188;94747.99;;;;
2020/03/27 03:20:21;;;;;;;15.05;7.699999;;;;;;;-0.66;59.67188;94747.99;;;;
2020/03/27 03:21:22;;;;;;;15.05;7.699999;;;;;;;-0.66;59.67188;94747.99;;;;
2020/03/27 03:22:23;;;;;;;15.05;7.699999;;;;;;;-0.66;59.67188;94747.99;;;;
2020/03/27 03:23:31;;;;;;;15.05;7.699999;;;;;;;-0.66;59.67188;94747.99;;;;
2020/03/27 03:24:39;;;;;;;13.45;8.200001;;;;;;;-0.6;59.6377;94747.78;;;;
2020/03/27 03:25:48;;;;;;;13.45;8.200001;;;;;;;-0.6;59.6377;94747.78;;;;
2020/03/27 03:26:53;;;;;;;13.45;8.200001;;;;;;;-0.6;59.6377;94747.78;;;;
2020/03/27 03:32:59;;;;;;;13.45;8.200001;;;;;;;-0.6;59.6377;94747.78;;;;
2020/03/27 03:34:00;;;;;;;13.45;8.200001;;;;;;;-0.6;59.6377;94747.78;;;;
2020/03/27 03:35:26;;;;;;;15.35;8.200001;;;;;;;-0.66;59.73535;94747.09;;;;
2020/03/27 03:36:27;;;;;;;15.35;8.200001;;;;;;;-0.66;59.73535;94747.09;;;;
2020/03/27 03:37:36;;;;;;;15.35;8.200001;;;;;;;-0.66;59.73535;94747.09;;;;
2020/03/27 03:38:39;;;;;;;15.35;8.200001;;;;;;;-0.66;59.73535;94747.09;;;;
2020/03/27 03:39:48;;;;;;;15.35;8.200001;;;;;;;-0.66;59.73535;94747.09;;;;
2020/03/27 03:41:02;;;;;;;15.35;8.200001;;;;;;;-0.66;59.73535;94747.09;;;;
2020/03/27 03:42:07;;;;;;;15.35;8.200001;;;;;;;-0.66;59.73535;94747.09;;;;
2020/03/27 03:43:24;;;;;;;15.35;8.200001;;;;;;;-0.66;59.73535;94747.09;;;;
2020/03/27 03:44:56;;;;;;;15.35;8.200001;;;;;;;-0.66;59.73535;94747.09;;;;
2020/03/27 03:46:00;;;;;;;15.9;7.9;;;;;;;-0.63;59.78027;94741.52;;;;
2020/03/27 03:47:10;;;;;;;15.9;7.9;;;;;;;-0.63;59.78027;94741.52;;;;
2020/03/27 03:48:31;;;;;;;15.9;7.9;;;;;;;-0.63;59.78027;94741.52;;;;
2020/03/27 03:49:32;;;;;;;15.9;7.9;;;;;;;-0.63;59.78027;94741.52;;;;
2020/03/27 03:50:37;;;;;;;15.9;7.9;;;;;;;-0.63;59.78027;94741.52;;;;
2020/03/27 03:51:56;;;;;;;15.9;7.9;;;;;;;-0.63;59.78027;94741.52;;;;
2020/03/27 03:52:59;;;;;;;15.9;7.9;;;;;;;-0.63;59.78027;94741.52;;;;
2020/03/27 03:54:14;;;;;;;15.9;7.9;;;;;;;-0.63;59.78027;94741.52;;;;
2020/03/27 03:55:20;;;;;;;15.9;7.9;;;;;;;-0.63;59.78027;94741.52;;;;
2020/03/27 03:56:27;;;;;;;14.2;8.299999;;;;;;;-0.68;59.8457;94743.87;;;;
2020/03/27 03:57:28;;;;;;;14.2;8.299999;;;;;;;-0.68;59.8457;94743.87;;;;
2020/03/27 03:58:32;;;;;;;14.2;8.299999;;;;;;;-0.68;59.8457;94743.87;;;;
2020/03/27 03:59:33;;;;;;;14.2;8.299999;;;;;;;-0.68;59.8457;94743.87;;;;
2020/03/27 04:00:33;;;;;;;14.2;8.299999;;;;;;;-0.68;59.8457;94743.87;;;;
2020/03/27 04:01:57;;;;;;;14.2;8.299999;;;;;;;-0.68;59.8457;94743.87;;;;
2020/03/27 04:02:58;;;;;;;14.2;8.299999;;;;;;;-0.68;59.8457;94743.87;;;;
2020/03/27 04:04:01;;;;;;;14.2;8.299999;;;;;;;-0.68;59.8457;94743.87;;;;
2020/03/27 04:05:12;;;;;;;14.2;8.299999;;;;;;;-0.68;59.8457;94743.87;;;;
2020/03/27 04:06:18;;;;;;;12.75;8.55;;;;;;;-0.69;59.98242;94745.29;;;;
2020/03/27 04:07:21;;;;;;;12.75;8.55;;;;;;;-0.69;59.98242;94745.29;;;;
2020/03/27 04:08:23;;;;;;;12.75;8.55;;;;;;;-0.69;59.98242;94745.29;;;;
2020/03/27 04:09:23;;;;;;;12.75;8.55;;;;;;;-0.69;59.98242;94745.29;;;;
2020/03/27 04:11:42;;;;;;;12.75;8.55;;;;;;;-0.69;59.98242;94745.29;;;;
2020/03/27 04:12:42;;;;;;;12.75;8.55;;;;;;;-0.69;59.98242;94745.29;;;;
2020/03/27 04:13:45;;;;;;;12.75;8.55;;;;;;;-0.69;59.98242;94745.29;;;;
2020/03/27 04:14:51;;;;;;;12.75;8.55;;;;;;;-0.69;59.98242;94745.29;;;;
2020/03/27 04:15:51;;;;;;;12.75;8.55;;;;;;;-0.69;59.98242;94745.29;;;;
2020/03/27 04:16:53;;;;;;;15.05;7.75;;;;;;;-0.81;60.07813;94742.36;;;;
2020/03/27 04:17:53;;;;;;;15.05;7.75;;;;;;;-0.81;60.07813;94742.36;;;;
2020/03/27 04:18:55;;;;;;;15.05;7.75;;;;;;;-0.81;60.07813;94742.36;;;;
2020/03/27 04:19:59;;;;;;;15.05;7.75;;;;;;;-0.81;60.07813;94742.36;;;;
2020/03/27 04:20:59;;;;;;;15.05;7.75;;;;;;;-0.81;60.07813;94742.36;;;;
2020/03/27 04:22:10;;;;;;;15.05;7.75;;;;;;;-0.81;60.07813;94742.36;;;;
2020/03/27 04:23:22;;;;;;;15.05;7.75;;;;;;;-0.81;60.07813;94742.36;;;;
2020/03/27 04:25:11;;;;;;;15.05;7.75;;;;;;;-0.81;60.07813;94742.36;;;;
2020/03/27 04:26:12;;;;;;;15.05;7.75;;;;;;;-0.81;60.07813;94742.36;;;;
2020/03/27 04:27:15;;;;;;;15.05;7.75;;;;;;;-0.81;60.07813;94742.36;;;;
2020/03/27 04:28:16;;;;;;;12.1;7.95;;;;;;;-0.87;60.19727;94744.31;;;;
2020/03/27 04:30:47;;;;;;;12.1;7.95;;;;;;;-0.87;60.19727;94744.31;;;;
2020/03/27 04:34:06;;;;;;;12.1;7.95;;;;;;;-0.87;60.19727;94744.31;;;;
2020/03/27 04:35:13;;;;;;;12.1;7.95;;;;;;;-0.87;60.19727;94744.31;;;;
2020/03/27 04:36:22;;;;;;;12.1;7.95;;;;;;;-0.87;60.19727;94744.31;;;;
2020/03/27 04:37:22;;;;;;;12.1;7.95;;;;;;;-0.87;60.19727;94744.31;;;;
2020/03/27 04:38:23;;;;;;;13.05;7.700001;;;;;;;-1.01;60.32422;94746.41;;;;
2020/03/27 04:39:23;;;;;;;13.05;7.700001;;;;;;;-1.01;60.32422;94746.41;;;;
2020/03/27 04:40:59;;;;;;;13.05;7.700001;;;;;;;-1.01;60.32422;94746.41;;;;
2020/03/27 04:42:00;;;;;;;13.05;7.700001;;;;;;;-1.01;60.32422;94746.41;;;;
2020/03/27 04:43:02;;;;;;;13.05;7.700001;;;;;;;-1.01;60.32422;94746.41;;;;
2020/03/27 04:44:06;;;;;;;13.05;7.700001;;;;;;;-1.01;60.32422;94746.41;;;;
2020/03/27 04:45:07;;;;;;;13.05;7.700001;;;;;;;-1.01;60.32422;94746.41;;;;
2020/03/27 04:46:13;;;;;;;13.05;7.700001;;;;;;;-1.01;60.32422;94746.41;;;;
2020/03/27 04:47:17;;;;;;;13.05;7.700001;;;;;;;-1.01;60.32422;94746.41;;;;
2020/03/27 04:48:18;;;;;;;13.05;7.700001;;;;;;;-1.01;60.32422;94746.41;;;;
2020/03/27 04:49:25;;;;;;;11.6;8.200002;;;;;;;-1.06;60.52637;94756.72;;;;
2020/03/27 04:51:02;;;;;;;11.6;8.200002;;;;;;;-1.06;60.52637;94756.72;;;;
2020/03/27 04:52:07;;;;;;;11.6;8.200002;;;;;;;-1.06;60.52637;94756.72;;;;
2020/03/27 04:53:08;;;;;;;11.6;8.200002;;;;;;;-1.06;60.52637;94756.72;;;;
2020/03/27 04:54:11;;;;;;;11.6;8.200002;;;;;;;-1.06;60.52637;94756.72;;;;
2020/03/27 04:55:15;;;;;;;11.6;8.200002;;;;;;;-1.06;60.52637;94756.72;;;;
2020/03/27 04:56:15;;;;;;;11.6;8.200002;;;;;;;-1.06;60.52637;94756.72;;;;
2020/03/27 04:57:16;;;;;;;11.6;8.200002;;;;;;;-1.06;60.52637;94756.72;;;;
2020/03/27 04:58:17;;;;;;;11.6;8.200002;;;;;;;-1.06;60.52637;94756.72;;;;
2020/03/27 04:59:22;;;;;;;14.7;8.049999;;;;;;;-1.19;60.42383;94763.64;;;;
2020/03/27 05:00:26;;;;;;;14.7;8.049999;;;;;;;-1.19;60.42383;94763.64;;;;
2020/03/27 05:01:31;;;;;;;14.7;8.049999;;;;;;;-1.19;60.42383;94763.64;;;;
2020/03/27 05:02:36;;;;;;;14.7;8.049999;;;;;;;-1.19;60.42383;94763.64;;;;
2020/03/27 05:03:37;;;;;;;14.7;8.049999;;;;;;;-1.19;60.42383;94763.64;;;;
2020/03/27 05:04:37;;;;;;;14.7;8.049999;;;;;;;-1.19;60.42383;94763.64;;;;
2020/03/27 05:05:46;;;;;;;14.7;8.049999;;;;;;;-1.19;60.42383;94763.64;;;;
2020/03/27 05:06:47;;;;;;;14.7;8.049999;;;;;;;-1.19;60.42383;94763.64;;;;
2020/03/27 05:07:50;;;;;;;14.7;8.049999;;;;;;;-1.19;60.42383;94763.64;;;;
2020/03/27 05:08:52;;;;;;;14.7;8.049999;;;;;;;-1.19;60.42383;94763.64;;;;
2020/03/27 05:09:58;;;;;;;12.85;7.85;;;;;;;-1.2;60.54688;94768.59;;;;
2020/03/27 05:12:06;;;;;;;12.85;7.85;;;;;;;-1.2;60.54688;94768.59;;;;
2020/03/27 05:13:12;;;;;;;12.85;7.85;;;;;;;-1.2;60.54688;94768.59;;;;
2020/03/27 05:14:51;;;;;;;12.85;7.85;;;;;;;-1.2;60.54688;94768.59;;;;
2020/03/27 05:15:56;;;;;;;12.85;7.85;;;;;;;-1.2;60.54688;94768.59;;;;
2020/03/27 05:17:00;;;;;;;12.85;7.85;;;;;;;-1.2;60.54688;94768.59;;;;
2020/03/27 05:18:14;;;;;;;12.85;7.85;;;;;;;-1.2;60.54688;94768.59;;;;
2020/03/27 05:19:18;;;;;;;12.85;7.85;;;;;;;-1.2;60.54688;94768.59;;;;
2020/03/27 05:20:19;;;;;;;12.85;7.85;;;;;;;-1.2;60.54688;94768.59;;;;
2020/03/27 05:21:22;;;;;;;14.7;8.650001;;;;;;;-1.23;60.51074;94772.92;;;;
2020/03/27 05:22:22;;;;;;;14.7;8.650001;;;;;;;-1.23;60.51074;94772.92;;;;
2020/03/27 05:23:23;;;;;;;14.7;8.650001;;;;;;;-1.23;60.51074;94772.92;;;;
2020/03/27 05:24:28;;;;;;;14.7;8.650001;;;;;;;-1.23;60.51074;94772.92;;;;
2020/03/27 05:25:30;;;;;;;14.7;8.650001;;;;;;;-1.23;60.51074;94772.92;;;;
2020/03/27 05:26:31;;;;;;;14.7;8.650001;;;;;;;-1.23;60.51074;94772.92;;;;
2020/03/27 05:27:34;;;;;;;14.7;8.650001;;;;;;;-1.23;60.51074;94772.92;;;;
2020/03/27 05:28:34;;;;;;;14.7;8.650001;;;;;;;-1.23;60.51074;94772.92;;;;
2020/03/27 05:29:36;;;;;;;14.7;8.650001;;;;;;;-1.23;60.51074;94772.92;;;;
2020/03/27 05:30:37;;;;;;;14.7;8.650001;;;;;;;-1.23;60.51074;94772.92;;;;
2020/03/27 05:31:41;;;;;;;14.4;8.299999;;;;;;;-1.13;60.49414;94784.51;;;;
2020/03/27 05:32:45;;;;;;;14.4;8.299999;;;;;;;-1.13;60.49414;94784.51;;;;
2020/03/27 05:33:47;;;;;;;14.4;8.299999;;;;;;;-1.13;60.49414;94784.51;;;;
2020/03/27 05:34:54;;;;;;;14.4;8.299999;;;;;;;-1.13;60.49414;94784.51;;;;
2020/03/27 05:35:58;;;;;;;14.4;8.299999;;;;;;;-1.13;60.49414;94784.51;;;;
2020/03/27 05:37:00;;;;;;;14.4;8.299999;;;;;;;-1.13;60.49414;94784.51;;;;
2020/03/27 05:38:02;;;;;;;14.4;8.299999;;;;;;;-1.13;60.49414;94784.51;;;;
2020/03/27 05:39:03;;;;;;;14.4;8.299999;;;;;;;-1.13;60.49414;94784.51;;;;
2020/03/27 05:40:26;;;;;;;14.4;8.299999;;;;;;;-1.13;60.49414;94784.51;;;;
2020/03/27 05:41:28;;;;;;;14.4;8.299999;;;;;;;-1.13;60.49414;94784.51;;;;
2020/03/27 05:42:29;;;;;;;14.4;8.299999;;;;;;;-1.13;60.49414;94784.51;;;;
2020/03/27 05:44:04;;;;;;;14.4;8.299999;;;;;;;-1.13;60.49414;94784.51;;;;
2020/03/27 05:45:05;;;;;;;14.4;8.299999;;;;;;;-1.13;60.49414;94784.51;;;;
2020/03/27 05:46:15;;;;;;;14.4;8.299999;;;;;;;-1.13;60.49414;94784.51;;;;
2020/03/27 05:47:15;;;;;;;14.4;8.299999;;;;;;;-1.13;60.49414;94784.51;;;;
2020/03/27 05:48:16;;;;;;;14.4;8.299999;;;;;;;-1.13;60.49414;94784.51;;;;
2020/03/27 05:49:20;;;;;;;14.4;8.299999;;;;;;;-1.13;60.49414;94784.51;;;;
2020/03/27 05:50:26;;;;;;;14.4;8.299999;;;;;;;-1.13;60.49414;94784.51;;;;
2020/03/27 05:51:34;;;;;;;14.4;8.299999;;;;;;;-1.13;60.49414;94784.51;;;;
2020/03/27 05:52:34;;;;;;;14;8.35;;;;;;;-0.75;60.11035;94793.22;;;;
2020/03/27 05:53:35;;;;;;;14;8.35;;;;;;;-0.75;60.11035;94793.22;;;;
2020/03/27 05:55:20;;;;;;;14;8.35;;;;;;;-0.75;60.11035;94793.22;;;;
2020/03/27 05:56:28;;;;;;;14;8.35;;;;;;;-0.75;60.11035;94793.22;;;;
2020/03/27 05:57:44;;;;;;;14;8.35;;;;;;;-0.75;60.11035;94793.22;;;;
2020/03/27 05:58:56;;;;;;;14;8.35;;;;;;;-0.75;60.11035;94793.22;;;;
2020/03/27 06:00:01;;;;;;;14;8.35;;;;;;;-0.75;60.11035;94793.22;;;;
2020/03/27 06:01:17;;;;;;;14;8.35;;;;;;;-0.75;60.11035;94793.22;;;;
2020/03/27 06:02:24;;;;;;;14;8.35;;;;;;;-0.75;60.11035;94793.22;;;;
2020/03/27 06:03:25;;;;;;;16.25;8.449999;;;;;;;-0.51;60.03906;94793.5;;;;
2020/03/27 06:04:29;;;;;;;16.25;8.449999;;;;;;;-0.51;60.03906;94793.5;;;;
2020/03/27 06:05:33;;;;;;;16.25;8.449999;;;;;;;-0.51;60.03906;94793.5;;;;
2020/03/27 06:06:34;;;;;;;16.25;8.449999;;;;;;;-0.51;60.03906;94793.5;;;;
2020/03/27 06:07:35;;;;;;;16.25;8.449999;;;;;;;-0.51;60.03906;94793.5;;;;
2020/03/27 06:08:36;;;;;;;16.25;8.449999;;;;;;;-0.51;60.03906;94793.5;;;;
2020/03/27 06:09:42;;;;;;;16.25;8.449999;;;;;;;-0.51;60.03906;94793.5;;;;
2020/03/27 06:10:47;;;;;;;16.25;8.449999;;;;;;;-0.51;60.03906;94793.5;;;;
2020/03/27 06:11:50;;;;;;;16.25;8.449999;;;;;;;-0.51;60.03906;94793.5;;;;
2020/03/27 06:12:52;;;;;;;16.25;8.449999;;;;;;;-0.51;60.03906;94793.5;;;;
2020/03/27 06:14:02;;;;;;;14.05;7.999999;;;;;;;-0.04;59.90527;94802.45;;;;
2020/03/27 06:15:06;;;;;;;14.05;7.999999;;;;;;;-0.04;59.90527;94802.45;;;;
2020/03/27 06:16:10;;;;;;;14.05;7.999999;;;;;;;-0.04;59.90527;94802.45;;;;
2020/03/27 06:17:10;;;;;;;14.05;7.999999;;;;;;;-0.04;59.90527;94802.45;;;;
2020/03/27 06:18:11;;;;;;;14.05;7.999999;;;;;;;-0.04;59.90527;94802.45;;;;
2020/03/27 06:19:14;;;;;;;14.05;7.999999;;;;;;;-0.04;59.90527;94802.45;;;;
2020/03/27 06:20:15;;;;;;;14.05;7.999999;;;;;;;-0.04;59.90527;94802.45;;;;
2020/03/27 06:21:20;;;;;;;14.05;7.999999;;;;;;;-0.04;59.90527;94802.45;;;;
2020/03/27 06:22:23;;;;;;;14.05;7.999999;;;;;;;-0.04;59.90527;94802.45;;;;
2020/03/27 06:23:27;;;;;;;14.05;7.999999;;;;;;;-0.04;59.90527;94802.45;;;;
2020/03/27 06:24:28;;;;;;;13.85;9.15;;;;;;;0.39;59.63184;94805.07;;;;
2020/03/27 06:25:29;;;;;;;13.85;9.15;;;;;;;0.39;59.63184;94805.07;;;;
2020/03/27 06:26:31;;;;;;;13.85;9.15;;;;;;;0.39;59.63184;94805.07;;;;
2020/03/27 06:27:36;;;;;;;13.85;9.15;;;;;;;0.39;59.63184;94805.07;;;;
2020/03/27 06:28:39;;;;;;;13.85;9.15;;;;;;;0.39;59.63184;94805.07;;;;
2020/03/27 06:29:42;;;;;;;13.85;9.15;;;;;;;0.39;59.63184;94805.07;;;;
2020/03/27 06:30:46;;;;;;;13.85;9.15;;;;;;;0.39;59.63184;94805.07;;;;
2020/03/27 06:31:50;;;;;;;13.85;9.15;;;;;;;0.39;59.63184;94805.07;;;;
2020/03/27 06:32:55;;;;;;;13.85;9.15;;;;;;;0.39;59.63184;94805.07;;;;
2020/03/27 06:34:03;;;;;;;13.85;9.15;;;;;;;0.39;59.63184;94805.07;;;;
2020/03/27 06:35:05;;;;;;;16.1;9.15;;;;;;;1.2;59.35449;94808.28;;;;
2020/03/27 06:36:05;;;;;;;16.1;9.15;;;;;;;1.2;59.35449;94808.28;;;;
2020/03/27 06:37:10;;;;;;;16.1;9.15;;;;;;;1.2;59.35449;94808.28;;;;
2020/03/27 06:39:21;;;;;;;16.1;9.15;;;;;;;1.2;59.35449;94808.28;;;;
2020/03/27 06:40:25;;;;;;;16.1;9.15;;;;;;;1.2;59.35449;94808.28;;;;
2020/03/27 06:41:32;;;;;;;16.1;9.15;;;;;;;1.2;59.35449;94808.28;;;;
2020/03/27 06:42:41;;;;;;;16.1;9.15;;;;;;;1.2;59.35449;94808.28;;;;
2020/03/27 06:43:41;;;;;;;16.1;9.15;;;;;;;1.2;59.35449;94808.28;;;;
2020/03/27 06:44:48;;;;;;;16.1;9.15;;;;;;;1.2;59.35449;94808.28;;;;
2020/03/27 06:45:49;;;;;;;14.1;9.099998;;;;;;;2.48;58.4043;94808.13;;;;
2020/03/27 06:46:50;;;;;;;14.1;9.099998;;;;;;;2.48;58.4043;94808.13;;;;
2020/03/27 06:47:54;;;;;;;14.1;9.099998;;;;;;;2.48;58.4043;94808.13;;;;
2020/03/27 06:48:54;;;;;;;14.1;9.099998;;;;;;;2.48;58.4043;94808.13;;;;
2020/03/27 06:49:55;;;;;;;14.1;9.099998;;;;;;;2.48;58.4043;94808.13;;;;
2020/03/27 06:50:59;;;;;;;14.1;9.099998;;;;;;;2.48;58.4043;94808.13;;;;
2020/03/27 06:52:00;;;;;;;14.1;9.099998;;;;;;;2.48;58.4043;94808.13;;;;
2020/03/27 06:53:02;;;;;;;14.1;9.099998;;;;;;;2.48;58.4043;94808.13;;;;
2020/03/27 06:54:03;;;;;;;14.1;9.099998;;;;;;;2.48;58.4043;94808.13;;;;
2020/03/27 06:55:03;;;;;;;14.1;9.099998;;;;;;;2.48;58.4043;94808.13;;;;
2020/03/27 06:56:08;;;;;;;15;9.100001;;;;;;;3.98;57.21094;94801.81;;;;
2020/03/27 06:57:10;;;;;;;15;9.100001;;;;;;;3.98;57.21094;94801.81;;;;
2020/03/27 06:58:13;;;;;;;15;9.100001;;;;;;;3.98;57.21094;94801.81;;;;
2020/03/27 06:59:14;;;;;;;15;9.100001;;;;;;;3.98;57.21094;94801.81;;;;
2020/03/27 07:00:14;;;;;;;15;9.100001;;;;;;;3.98;57.21094;94801.81;;;;
2020/03/27 07:01:26;;;;;;;15;9.100001;;;;;;;3.98;57.21094;94801.81;;;;
2020/03/27 07:02:27;;;;;;;15;9.100001;;;;;;;3.98;57.21094;94801.81;;;;
2020/03/27 07:03:28;;;;;;;15;9.100001;;;;;;;3.98;57.21094;94801.81;;;;
2020/03/27 07:04:28;;;;;;;15;9.100001;;;;;;;3.98;57.21094;94801.81;;;;
2020/03/27 07:05:29;;;;;;;15;9.100001;;;;;;;3.98;57.21094;94801.81;;;;
2020/03/27 07:06:30;;;;;;;15;9.100001;;;;;;;3.98;57.21094;94801.81;;;;
2020/03/27 07:07:30;;;;;;;15.6;8.900001;;;;;;;5.28;56.37402;94815.25;;;;
2020/03/27 07:08:32;;;;;;;15.6;8.900001;;;;;;;5.28;56.37402;94815.25;;;;